메인 페이지
METAR-TAF:

METAR-TAF

공항 :

Volk Field Air National Guard Base

Camp Douglas, 위스콘신, 미국

위도: 43-56N, 경도: 090-16W, 고도: 277m

현재 날씨관측

예보는 37분 전, 13:56시(UTC)에 발표되었습니다.
서남서7kt, 순간 최대 풍속 14kt
온도 22°C
습도 94%
기압 1010 hPa
시정: 16.1km
맑음

METAR: KVOK 251356Z AUTO 25007G14KT 10SM CLR 22/21 A2982 RMK AO2 SLP098 T02180206

시각: 09:33 (14:33 UTC)

예보

예보는 20 시간 26분 전, 18:07시(UTC)에 발표되었습니다.
예보 대상 시간: 24일 18시부터 25일 23시까지 (UTC)
동남동9kt
시정: 8000m
고도 1000ft 상공 흐림
약한비
전환 중
25일 01시부터 25일 02시까지 (UTC)
여러 방향의 바람 6kt
시정: 8000m
고도 500ft 상공 구름 보통
고도 1000ft 상공 흐림
박무
전환 중
25일 12시부터 25일 13시까지 (UTC)
남남동9kt
시정: 6000m
고도 800ft 상공 흐림
약한소나기
일시적
25일 18시부터 25일 21시까지 (UTC)
10kt, 순간 최대 풍속 15kt
시정: 2701m
고도 1000ft 상공 흐림, 적란운.
뇌우, 약한비

TAF: KVOK 241807Z 2418/2523 11009KT 8000 -RA OVC010 QNH2998INS BECMG 2501/2502 VRB06KT 8000 BR SCT005 OVC010 QNH2991INS BECMG 2512/2513 16009KT 6000 -SHRA OVC008 QNH2975INS TEMPO 2518/2521 27010G15KT 8000 -TSRA OVC010CB TX18/2421Z TN09/2509Z LAST NO AMDS AFT 2419 NEXT 2701

4,000개 이상의 공항 관측 자료 및 예보 (METAR 및 TAF 보고).

지도상에서 검색 가능한 기상관측소가 노란 점과 빨간 점으로 표시되어 있습니다.

기상관측소 명을 보려면 표시 위로 마우스를 이동하세요.

날씨 관측과 예보를 보려면 클릭하세요.

지도 변경 : 확대하려면 엑스 표시가 있는 녹색 버튼, 축소하려면 빼기 표시가 있는 녹색 버튼, 다음 페이지의 지도를 보려면 녹색 화살표를 클릭하세요.


METAR-TAF: